createdAt,value
2019-01-21T00:00:50.701Z,45.70
2019-01-21T00:03:17.369Z,44.20
2019-01-21T00:05:43.930Z,47.60
2019-01-21T00:08:10.462Z,44.83
2019-01-21T00:10:37.344Z,50.23
2019-01-21T00:13:04.003Z,41.30
2019-01-21T00:15:30.549Z,46.23
2019-01-21T00:17:57.101Z,43.13
2019-01-21T00:20:23.640Z,45.37
2019-01-21T00:22:50.190Z,45.23
2019-01-21T00:25:16.753Z,44.47
2019-01-21T00:27:43.296Z,48.37
2019-01-21T00:30:10.631Z,46.67
2019-01-21T00:32:37.179Z,45.63
2019-01-21T00:35:05.018Z,45.03
2019-01-21T00:37:31.563Z,44.47
2019-01-21T00:39:58.116Z,37.77
2019-01-21T00:42:24.668Z,50.67
2019-01-21T00:44:51.204Z,46.63
2019-01-21T00:47:17.740Z,42.47
2019-01-21T00:49:44.279Z,42.63
2019-01-21T00:52:10.831Z,47.00
2019-01-21T00:54:37.369Z,46.57
2019-01-21T00:57:03.916Z,41.73
2019-01-21T00:59:30.496Z,44.03
2019-01-21T01:01:57.052Z,49.50
2019-01-21T01:04:23.607Z,47.50
2019-01-21T01:06:50.185Z,41.77
2019-01-21T01:09:16.820Z,45.00
2019-01-21T01:11:43.387Z,38.80
2019-01-21T01:14:09.928Z,38.00
2019-01-21T01:16:36.478Z,38.03
2019-01-21T01:19:03.007Z,46.87
2019-01-21T01:21:29.569Z,40.30
2019-01-21T01:23:56.113Z,47.77
2019-01-21T01:26:22.675Z,37.73
2019-01-21T01:28:49.215Z,40.10
2019-01-21T01:31:15.755Z,45.60
2019-01-21T01:33:42.295Z,48.60
2019-01-21T01:36:08.835Z,43.60
2019-01-21T01:38:35.384Z,37.13
2019-01-21T01:41:02.122Z,45.93
2019-01-21T01:43:28.674Z,38.33
2019-01-21T01:45:55.209Z,43.23
2019-01-21T01:48:21.760Z,42.40
2019-01-21T01:50:48.303Z,38.60
2019-01-21T01:53:14.853Z,45.30
2019-01-21T01:55:41.387Z,42.90
2019-01-21T01:58:07.938Z,40.47
2019-01-21T02:00:34.879Z,47.33
2019-01-21T02:03:01.450Z,46.43
2019-01-21T02:05:27.990Z,42.10
2019-01-21T02:07:54.540Z,37.40
2019-01-21T02:10:21.084Z,43.40
2019-01-21T02:12:47.933Z,40.80
2019-01-21T02:15:14.870Z,38.40
2019-01-21T02:17:41.419Z,40.93
2019-01-21T02:20:09.569Z,40.80
2019-01-21T02:22:38.011Z,38.63
2019-01-21T02:25:05.481Z,38.10
2019-01-21T02:27:34.223Z,40.73
2019-01-21T02:30:02.682Z,39.50
2019-01-21T02:32:31.123Z,32.80
2019-01-21T02:34:59.579Z,36.87
2019-01-21T02:37:37.360Z,38.97
2019-01-21T02:40:12.115Z,30.83
2019-01-21T02:42:43.579Z,35.07
2019-01-21T02:45:30.154Z,40.70
2019-01-21T02:48:00.327Z,42.40
2019-01-21T02:50:28.944Z,33.63
2019-01-21T02:53:00.552Z,35.07
2019-01-21T02:55:45.913Z,42.07
2019-01-21T02:58:26.676Z,39.57
2019-01-21T03:00:58.141Z,38.07
2019-01-21T03:03:26.596Z,35.20
2019-01-21T03:05:55.055Z,38.33
2019-01-21T03:08:29.301Z,39.40
2019-01-21T03:10:57.751Z,42.87
2019-01-21T03:13:35.546Z,36.40
2019-01-21T03:16:03.992Z,38.73
2019-01-21T03:18:41.484Z,37.53
2019-01-21T03:21:09.938Z,38.03
2019-01-21T03:23:55.180Z,37.77
2019-01-21T03:26:30.050Z,43.47
2019-01-21T03:29:01.235Z,39.03
2019-01-21T03:31:32.568Z,31.23
2019-01-21T03:34:03.764Z,36.77
2019-01-21T03:36:50.664Z,30.87
2019-01-21T03:39:19.129Z,35.03
2019-01-21T03:41:47.574Z,35.03
2019-01-21T03:44:19.013Z,31.63
2019-01-21T03:46:50.803Z,31.57
2019-01-21T03:49:22.266Z,36.80
2019-01-21T03:51:59.823Z,33.03
2019-01-21T03:54:27.249Z,34.23
2019-01-21T03:56:55.697Z,33.20
2019-01-21T03:59:33.194Z,37.90
2019-01-21T04:02:10.722Z,33.10
2019-01-21T04:04:51.527Z,37.57
2019-01-21T04:07:19.960Z,34.77
2019-01-21T04:09:57.490Z,45.43
2019-01-21T04:12:28.971Z,31.53
2019-01-21T04:15:14.290Z,36.70
2019-01-21T04:17:51.732Z,35.53
2019-01-21T04:20:36.963Z,31.13
2019-01-21T04:23:05.695Z,38.80
2019-01-21T04:25:36.903Z,33.33
2019-01-21T04:28:05.405Z,26.93
2019-01-21T04:30:39.943Z,34.50
2019-01-21T04:33:11.596Z,26.90
2019-01-21T04:35:45.899Z,27.00
2019-01-21T04:38:14.337Z,38.50
2019-01-21T04:40:45.759Z,33.17
2019-01-21T04:43:23.240Z,29.83
2019-01-21T04:45:54.693Z,30.33
2019-01-21T04:48:33.003Z,32.73
2019-01-21T04:50:59.536Z,35.57
2019-01-21T04:53:27.981Z,33.87
2019-01-21T04:56:13.619Z,27.07
2019-01-21T04:58:44.987Z,31.30
2019-01-21T05:01:16.440Z,33.13
2019-01-21T05:03:44.883Z,29.37
2019-01-21T05:06:13.336Z,30.90
2019-01-21T05:08:44.806Z,29.00
2019-01-21T05:11:31.574Z,38.23
2019-01-21T05:14:03.036Z,33.23
2019-01-21T05:16:31.495Z,35.67
2019-01-21T05:18:59.999Z,34.63
2019-01-21T05:21:28.451Z,38.53
2019-01-21T05:23:57.221Z,32.57
2019-01-21T05:26:25.679Z,36.20
2019-01-21T05:28:54.511Z,36.03
2019-01-21T05:31:25.745Z,37.10
2019-01-21T05:33:59.992Z,43.63
2019-01-21T05:36:37.654Z,31.03
2019-01-21T05:39:06.440Z,40.23
2019-01-21T05:41:34.894Z,37.03
2019-01-21T05:44:03.326Z,36.20
2019-01-21T05:46:48.645Z,31.43
2019-01-21T05:49:35.152Z,35.23
2019-01-21T05:52:03.695Z,33.33
2019-01-21T05:54:37.707Z,35.43
2019-01-21T05:57:09.000Z,33.47
2019-01-21T05:59:40.419Z,36.13
2019-01-21T06:02:17.949Z,35.43
2019-01-21T06:04:52.557Z,36.40
2019-01-21T06:07:28.420Z,25.67
2019-01-21T06:09:59.927Z,36.03
2019-01-21T06:12:43.733Z,29.03
2019-01-21T06:15:24.439Z,35.97
2019-01-21T06:17:52.903Z,26.03
2019-01-21T06:20:24.109Z,34.10
2019-01-21T06:22:55.684Z,26.60
2019-01-21T06:25:40.981Z,28.57
2019-01-21T06:28:12.434Z,28.33
2019-01-21T06:30:40.871Z,33.73
2019-01-21T06:33:12.356Z,37.93
2019-01-21T06:35:46.826Z,33.03
2019-01-21T06:38:15.284Z,25.73
2019-01-21T06:40:46.499Z,28.30
2019-01-21T06:43:17.954Z,29.53
2019-01-21T06:45:52.494Z,27.77
2019-01-21T06:48:20.947Z,27.30
2019-01-21T06:50:55.431Z,33.97
2019-01-21T06:53:23.878Z,28.27
2019-01-21T06:56:01.459Z,24.87
2019-01-21T06:58:41.928Z,24.80
2019-01-21T07:01:22.412Z,30.77
2019-01-21T07:03:53.883Z,26.87
2019-01-21T07:06:28.447Z,26.27
2019-01-21T07:09:08.817Z,24.70
2019-01-21T07:11:52.673Z,26.83
2019-01-21T07:14:21.117Z,30.33
2019-01-21T07:16:49.759Z,21.43
2019-01-21T07:19:21.464Z,36.97
2019-01-21T07:21:52.667Z,26.17
2019-01-21T07:24:26.896Z,33.07
2019-01-21T07:26:55.387Z,36.73
2019-01-21T07:29:35.951Z,32.97
2019-01-21T07:32:04.387Z,31.87
2019-01-21T07:34:35.847Z,28.93
2019-01-21T07:37:07.062Z,36.07
2019-01-21T07:39:35.519Z,29.87
2019-01-21T07:42:03.959Z,35.27
2019-01-21T07:44:47.782Z,33.63
2019-01-21T07:47:32.823Z,36.33
2019-01-21T07:50:10.341Z,32.47
2019-01-21T07:52:42.032Z,28.20
2019-01-21T07:55:13.488Z,41.00
2019-01-21T07:57:44.697Z,43.83
2019-01-21T08:00:13.148Z,33.90
2019-01-21T08:02:44.347Z,40.57
2019-01-21T08:05:21.631Z,29.80
2019-01-21T08:07:52.841Z,39.70
2019-01-21T08:10:33.662Z,30.13
2019-01-21T08:13:14.160Z,34.20
2019-01-21T08:15:51.991Z,31.90
2019-01-21T08:18:20.430Z,34.27
2019-01-21T08:20:48.884Z,37.07
2019-01-21T08:23:23.135Z,31.50
2019-01-21T08:25:57.622Z,28.67
2019-01-21T08:28:38.147Z,35.20
2019-01-21T08:31:09.616Z,24.53
2019-01-21T08:33:40.815Z,26.77
2019-01-21T08:36:26.332Z,31.50
2019-01-21T08:38:54.762Z,32.20
2019-01-21T08:41:26.312Z,32.50
2019-01-21T08:44:00.818Z,27.53
2019-01-21T08:46:44.670Z,33.53
2019-01-21T08:52:05.084Z,32.10
2019-01-21T08:54:50.127Z,32.67
2019-01-21T08:57:21.331Z,32.93
2019-01-21T08:59:49.794Z,27.10
2019-01-21T09:02:34.930Z,30.50
2019-01-21T09:05:03.401Z,24.43
2019-01-21T09:07:40.839Z,39.00
2019-01-21T09:10:12.081Z,31.80
2019-01-21T09:12:46.318Z,25.93
2019-01-21T09:15:14.784Z,25.67
2019-01-21T09:17:52.604Z,30.60
2019-01-21T09:20:39.355Z,31.33
2019-01-21T09:23:24.663Z,29.57
2019-01-21T09:25:59.168Z,28.80
2019-01-21T09:28:30.532Z,24.33
2019-01-21T09:31:08.041Z,26.43
2019-01-21T09:33:39.387Z,26.87
2019-01-21T09:36:25.939Z,25.27
2019-01-21T09:39:11.408Z,25.90
2019-01-21T09:41:48.871Z,21.23
2019-01-21T09:44:20.323Z,27.47
2019-01-21T09:46:46.776Z,30.67
2019-01-21T09:49:13.203Z,28.33
2019-01-21T09:51:40.450Z,28.00
2019-01-21T09:54:07.113Z,23.77
2019-01-21T09:56:35.588Z,25.53
2019-01-21T09:59:02.318Z,24.07
2019-01-21T10:01:29.869Z,24.27
2019-01-21T10:03:56.616Z,27.87
2019-01-21T10:06:25.067Z,26.67
2019-01-21T10:08:56.507Z,29.57
2019-01-21T10:11:42.026Z,25.13
2019-01-21T10:14:10.461Z,25.50
2019-01-21T10:16:38.917Z,25.30
2019-01-21T10:19:07.351Z,25.73
2019-01-21T10:21:51.126Z,23.23
2019-01-21T10:24:34.892Z,24.63
2019-01-21T10:27:06.238Z,23.50
2019-01-21T10:29:44.011Z,24.67
2019-01-21T10:32:12.466Z,29.33
2019-01-21T10:34:46.753Z,23.73
2019-01-21T10:37:32.154Z,26.03
2019-01-21T10:40:08.026Z,21.13
2019-01-21T10:42:39.496Z,23.07
2019-01-21T10:45:24.605Z,22.27
2019-01-21T10:47:53.059Z,26.63
2019-01-21T10:50:21.507Z,22.37
2019-01-21T10:52:56.252Z,25.03
2019-01-21T10:55:24.693Z,24.93
2019-01-21T10:57:53.155Z,25.07
2019-01-21T11:00:38.609Z,24.03
2019-01-21T11:03:16.192Z,24.83
2019-01-21T11:05:56.723Z,23.70
2019-01-21T11:08:31.462Z,24.40
2019-01-21T11:11:02.914Z,21.77
2019-01-21T11:13:40.468Z,25.97
2019-01-21T11:16:08.908Z,24.60
2019-01-21T11:18:43.376Z,24.77
2019-01-21T11:21:11.821Z,24.83
2019-01-21T11:23:46.361Z,28.70
2019-01-21T11:26:17.571Z,23.30
2019-01-21T11:28:46.039Z,27.83
2019-01-21T11:31:17.476Z,22.20
2019-01-21T11:33:45.932Z,26.50
2019-01-21T11:36:31.359Z,25.83
2019-01-21T11:39:08.739Z,25.63
2019-01-21T11:41:37.181Z,25.30
2019-01-21T11:44:14.941Z,27.93
2019-01-21T11:46:55.484Z,23.70
2019-01-21T11:49:23.943Z,26.17
2019-01-21T11:51:55.149Z,23.73
2019-01-21T11:54:27.654Z,28.90
2019-01-21T11:56:59.373Z,27.83
2019-01-21T11:59:36.803Z,23.97
2019-01-21T12:02:05.248Z,25.87
2019-01-21T12:04:39.791Z,25.63
2019-01-21T12:07:11.010Z,23.17
2019-01-21T12:09:48.510Z,25.30
2019-01-21T12:12:16.955Z,26.43
2019-01-21T12:14:57.700Z,24.80
2019-01-21T12:17:26.146Z,21.70
2019-01-21T12:20:06.667Z,28.40
2019-01-21T12:22:50.529Z,24.17
2019-01-21T12:25:24.888Z,24.70
2019-01-21T12:27:56.353Z,23.47
2019-01-21T12:30:24.849Z,24.17
2019-01-21T12:33:10.239Z,26.00
2019-01-21T12:35:38.695Z,25.10
2019-01-21T12:38:09.933Z,25.70
2019-01-21T12:40:38.400Z,27.60
2019-01-21T12:43:06.839Z,26.00
2019-01-21T12:45:44.351Z,24.93
2019-01-21T12:48:12.779Z,25.20
2019-01-21T12:50:43.989Z,27.97
2019-01-21T12:53:30.592Z,24.50
2019-01-21T12:56:14.041Z,23.73
2019-01-21T12:58:51.256Z,27.20
2019-01-21T13:01:19.727Z,25.70
2019-01-21T13:04:05.293Z,28.17
2019-01-21T13:06:39.783Z,28.10
2019-01-21T13:09:08.219Z,29.20
2019-01-21T13:11:48.749Z,29.53
2019-01-21T13:14:34.180Z,28.50
2019-01-21T13:17:02.632Z,28.53
2019-01-21T13:19:46.656Z,29.27
2019-01-21T13:22:15.163Z,26.77
2019-01-21T13:24:52.575Z,24.60
2019-01-21T13:27:21.068Z,33.03
2019-01-21T13:29:49.014Z,25.60
2019-01-21T13:32:17.463Z,29.47
2019-01-21T13:34:52.216Z,24.53
2019-01-21T13:37:37.577Z,28.13
2019-01-21T13:40:11.822Z,29.07
2019-01-21T13:42:40.271Z,27.80
2019-01-21T13:45:17.780Z,31.77
2019-01-21T13:47:46.227Z,23.60
2019-01-21T13:50:14.679Z,33.17
2019-01-21T13:52:58.483Z,29.63
2019-01-21T13:55:33.119Z,30.57
2019-01-21T13:58:05.086Z,27.90
2019-01-21T14:00:36.620Z,27.50
2019-01-21T14:03:07.811Z,27.57
2019-01-21T14:05:51.397Z,30.33
2019-01-21T14:08:19.843Z,27.23
2019-01-21T14:10:48.291Z,26.03
2019-01-21T14:13:16.751Z,30.03
2019-01-21T14:15:45.191Z,25.60
2019-01-21T14:18:16.386Z,29.10
2019-01-21T14:20:50.654Z,28.13
2019-01-21T14:23:25.477Z,27.20
2019-01-21T14:25:55.614Z,26.70
2019-01-21T14:28:33.084Z,30.43
2019-01-21T14:31:01.530Z,30.93
2019-01-21T14:33:29.977Z,27.33
2019-01-21T14:36:01.169Z,26.03
2019-01-21T14:38:29.711Z,30.73
2019-01-21T14:41:04.463Z,30.17
2019-01-21T14:43:42.128Z,27.97
2019-01-21T14:46:25.815Z,30.93
2019-01-21T14:48:54.286Z,29.57
2019-01-21T14:51:34.908Z,24.33
2019-01-21T14:54:12.189Z,28.27
2019-01-21T14:56:40.666Z,28.53
2019-01-21T14:59:15.224Z,31.67
2019-01-21T15:01:49.657Z,26.63
2019-01-21T15:04:33.239Z,28.60
2019-01-21T15:07:07.857Z,34.73
2019-01-21T15:09:36.456Z,29.03
2019-01-21T15:12:23.450Z,27.97
2019-01-21T15:15:10.212Z,27.33
2019-01-21T15:17:38.756Z,29.63
2019-01-21T15:20:07.252Z,27.70
2019-01-21T15:22:36.699Z,27.73
2019-01-21T15:25:11.417Z,30.47
2019-01-21T15:27:45.911Z,29.57
2019-01-21T15:30:14.422Z,30.63
2019-01-21T15:32:42.969Z,28.13
2019-01-21T15:35:11.600Z,31.83
2019-01-21T15:37:40.180Z,27.27
2019-01-21T15:40:14.527Z,26.97
2019-01-21T15:42:46.339Z,29.33
2019-01-21T15:45:24.070Z,28.50
2019-01-21T15:48:04.707Z,28.23
2019-01-21T15:50:33.143Z,27.63
2019-01-21T15:53:01.604Z,28.87
2019-01-21T15:55:35.911Z,25.80
2019-01-21T15:58:04.362Z,34.47
2019-01-21T16:00:38.709Z,29.87
2019-01-21T16:03:13.262Z,29.40
2019-01-21T16:05:44.540Z,33.60
2019-01-21T16:08:12.995Z,39.27
2019-01-21T16:10:44.513Z,29.97
2019-01-21T16:13:18.887Z,29.33
2019-01-21T16:15:50.404Z,28.17
2019-01-21T16:18:18.843Z,35.77
2019-01-21T16:20:47.338Z,38.30
2019-01-21T16:23:21.754Z,34.97
2019-01-21T16:25:49.404Z,27.80
2019-01-21T16:28:20.888Z,38.63
2019-01-21T16:30:55.636Z,39.27
2019-01-21T16:33:24.092Z,34.30
2019-01-21T16:35:58.356Z,33.30
2019-01-21T16:38:24.899Z,37.47
2019-01-21T16:40:53.336Z,37.10
2019-01-21T16:43:19.883Z,39.57
2019-01-21T16:45:46.427Z,37.10
2019-01-21T16:48:12.976Z,39.80
2019-01-21T16:50:39.500Z,38.03
2019-01-21T16:53:06.081Z,31.23
2019-01-21T16:55:32.632Z,37.67
2019-01-21T16:57:59.321Z,44.97
2019-01-21T17:00:25.923Z,37.07
2019-01-21T17:02:52.459Z,35.70
2019-01-21T17:05:19.019Z,38.63
2019-01-21T17:07:45.558Z,37.20
2019-01-21T17:10:12.303Z,37.10
2019-01-21T17:12:38.845Z,43.73
2019-01-21T17:15:06.996Z,44.37
2019-01-21T17:17:33.528Z,39.30
2019-01-21T17:20:00.133Z,38.60
2019-01-21T17:22:26.846Z,35.87
2019-01-21T17:24:53.428Z,44.53
2019-01-21T17:27:20.234Z,36.23
2019-01-21T17:29:47.002Z,38.63
2019-01-21T17:32:13.563Z,35.93
2019-01-21T17:34:40.107Z,38.87
2019-01-21T17:37:06.651Z,40.63
2019-01-21T17:39:33.194Z,38.07
2019-01-21T17:41:59.735Z,38.07
2019-01-21T17:44:26.284Z,39.97
2019-01-21T17:46:52.820Z,40.70
2019-01-21T17:49:19.368Z,46.00
2019-01-21T17:51:45.936Z,41.43
2019-01-21T17:54:12.491Z,47.47
2019-01-21T17:56:39.038Z,41.93
2019-01-21T17:59:05.644Z,44.30
2019-01-21T18:01:32.219Z,35.20
2019-01-21T18:03:58.850Z,47.27
2019-01-21T18:06:25.399Z,42.43
2019-01-21T18:09:00.008Z,53.50
2019-01-21T18:11:26.555Z,52.53
2019-01-21T18:13:53.093Z,44.97
2019-01-21T18:16:19.655Z,43.57
2019-01-21T18:18:46.195Z,37.63
2019-01-21T18:21:12.781Z,45.73
2019-01-21T18:23:39.321Z,52.10
2019-01-21T18:26:06.308Z,48.10
2019-01-21T18:28:32.843Z,68.30
2019-01-21T18:30:59.390Z,73.20
2019-01-21T18:33:25.949Z,67.70
2019-01-21T18:35:52.523Z,59.73
2019-01-21T18:38:19.043Z,50.17
2019-01-21T18:40:45.652Z,55.77
2019-01-21T18:43:12.299Z,52.50
2019-01-21T18:45:38.854Z,45.93
2019-01-21T18:48:05.396Z,47.37
2019-01-21T18:50:31.942Z,55.37
2019-01-21T18:52:58.479Z,55.87
2019-01-21T18:55:25.030Z,63.40
2019-01-21T18:57:55.890Z,75.30
2019-01-21T19:00:21.268Z,59.00
2019-01-21T19:02:47.802Z,81.23
2019-01-21T19:05:14.623Z,63.43
2019-01-21T19:07:44.858Z,58.63
2019-01-21T19:10:17.759Z,55.60
2019-01-21T19:12:44.299Z,51.13
2019-01-21T19:15:19.618Z,48.90
2019-01-21T19:17:49.939Z,53.73
2019-01-21T19:20:20.370Z,53.00
2019-01-21T19:22:46.917Z,45.27
2019-01-21T19:25:13.594Z,57.10
2019-01-21T19:27:43.272Z,45.07
2019-01-21T19:30:15.003Z,53.33
2019-01-21T19:32:47.218Z,52.27
2019-01-21T19:35:15.823Z,45.30
2019-01-21T19:37:47.878Z,42.13
2019-01-21T19:40:15.839Z,42.70
2019-01-21T19:42:42.376Z,44.27
2019-01-21T19:45:12.454Z,43.73
2019-01-21T19:47:39.327Z,52.43
2019-01-21T19:50:08.155Z,52.23
2019-01-21T19:52:37.659Z,47.10
2019-01-21T19:55:09.099Z,41.17
2019-01-21T19:57:35.646Z,44.57
2019-01-21T20:00:06.978Z,46.50
2019-01-21T20:02:35.131Z,44.30
2019-01-21T20:05:04.954Z,44.67
2019-01-21T20:07:31.507Z,43.57
2019-01-21T20:09:59.967Z,44.20
2019-01-21T20:12:26.551Z,47.33
2019-01-21T20:14:53.191Z,46.97
2019-01-21T20:17:19.726Z,46.43
2019-01-21T20:19:49.087Z,50.37
2019-01-21T20:22:15.642Z,41.27
2019-01-21T20:24:45.524Z,39.77
2019-01-21T20:27:14.005Z,45.23
2019-01-21T20:29:40.544Z,46.53
2019-01-21T20:32:08.311Z,46.50
2019-01-21T20:34:35.033Z,44.37
2019-01-21T20:37:01.585Z,45.10
2019-01-21T20:39:30.256Z,39.87
2019-01-21T20:41:56.792Z,35.77
2019-01-21T20:44:26.870Z,41.60
2019-01-21T20:46:55.824Z,34.07
2019-01-21T20:49:22.404Z,35.37
2019-01-21T20:51:53.315Z,37.13
2019-01-21T20:54:19.875Z,33.83
2019-01-21T20:56:46.409Z,40.07
2019-01-21T20:59:14.893Z,34.47
2019-01-21T21:01:41.443Z,42.67
2019-01-21T21:04:08.004Z,49.73
2019-01-21T21:06:34.540Z,34.83
2019-01-21T21:09:01.095Z,38.47
2019-01-21T21:11:27.631Z,44.40
2019-01-21T21:13:54.185Z,40.67
2019-01-21T21:16:20.715Z,38.00
2019-01-21T21:18:47.268Z,46.87
2019-01-21T21:21:13.802Z,40.40
2019-01-21T21:23:40.375Z,41.97
2019-01-21T21:26:06.991Z,38.37
2019-01-21T21:28:33.939Z,43.73
2019-01-21T21:31:00.490Z,43.60
2019-01-21T21:33:27.039Z,46.83
2019-01-21T21:35:53.582Z,40.90
2019-01-21T21:38:20.128Z,43.27
2019-01-21T21:40:46.667Z,77.97
2019-01-21T21:43:13.212Z,47.03
2019-01-21T21:45:39.851Z,45.30
2019-01-21T21:48:06.517Z,45.80
2019-01-21T21:50:33.152Z,44.40
2019-01-21T21:52:59.902Z,41.73
2019-01-21T21:55:26.548Z,53.57
2019-01-21T21:57:53.096Z,39.13
2019-01-21T22:00:24.998Z,48.97
2019-01-21T22:02:51.759Z,42.07
2019-01-21T22:05:18.502Z,45.07
2019-01-21T22:07:45.238Z,44.30
2019-01-21T22:10:13.384Z,41.30
2019-01-21T22:12:39.927Z,46.97
2019-01-21T22:15:08.384Z,51.23
2019-01-21T22:17:35.020Z,47.80
2019-01-21T22:20:02.581Z,48.63
2019-01-21T22:22:34.769Z,54.77
2019-01-21T22:24:57.568Z,44.27
2019-01-21T22:27:29.927Z,38.70
2019-01-21T22:29:56.476Z,54.23
2019-01-21T22:32:23.019Z,54.87
2019-01-21T22:34:49.571Z,66.77
2019-01-21T22:37:16.210Z,59.70
2019-01-21T22:39:42.984Z,65.40
2019-01-21T22:42:09.532Z,54.83
2019-01-21T22:44:36.183Z,50.50
2019-01-21T22:47:02.720Z,51.17
2019-01-21T22:49:29.283Z,53.37
2019-01-21T22:51:55.840Z,61.20
2019-01-21T22:54:22.492Z,58.27
2019-01-21T22:56:49.136Z,62.77
2019-01-21T22:59:15.885Z,55.30
2019-01-21T23:01:42.647Z,56.13
2019-01-21T23:04:09.223Z,57.77
2019-01-21T23:06:35.760Z,68.00
2019-01-21T23:09:05.147Z,55.23
2019-01-21T23:11:31.688Z,62.43
2019-01-21T23:13:58.632Z,54.17
2019-01-21T23:16:25.167Z,64.17
2019-01-21T23:18:51.722Z,47.13
2019-01-21T23:21:18.256Z,52.07
2019-01-21T23:23:45.058Z,52.50
2019-01-21T23:26:11.859Z,54.30
2019-01-21T23:28:38.403Z,51.53
2019-01-21T23:31:05.348Z,46.37
2019-01-21T23:33:31.992Z,43.40
2019-01-21T23:35:58.548Z,43.70
2019-01-21T23:38:25.203Z,49.93
2019-01-21T23:40:51.858Z,40.80
2019-01-21T23:43:18.495Z,46.50
2019-01-21T23:45:45.043Z,48.50
2019-01-21T23:48:11.588Z,37.03
2019-01-21T23:50:38.144Z,46.63
2019-01-21T23:53:04.687Z,44.37
2019-01-21T23:55:31.241Z,45.07
2019-01-21T23:57:57.799Z,43.40
